sensor_id;sensor_type;location;lat;lon;timestamp;temperature;humidity
17200;DHT22;8716;52.268;20.968;2023-04-25T00:01:12;13.90;99.90
17200;DHT22;8716;52.268;20.968;2023-04-25T00:03:41;13.80;99.90
17200;DHT22;8716;52.268;20.968;2023-04-25T00:06:09;13.80;99.90
17200;DHT22;8716;52.268;20.968;2023-04-25T00:08:39;13.80;99.90
17200;DHT22;8716;52.268;20.968;2023-04-25T00:11:08;13.80;99.90
17200;DHT22;8716;52.268;20.968;2023-04-25T00:13:36;13.80;99.90
17200;DHT22;8716;52.268;20.968;2023-04-25T00:16:04;13.70;99.90
17200;DHT22;8716;52.268;20.968;2023-04-25T00:18:33;13.70;99.90
17200;DHT22;8716;52.268;20.968;2023-04-25T00:21:01;13.60;99.90
17200;DHT22;8716;52.268;20.968;2023-04-25T00:23:29;13.60;99.90
17200;DHT22;8716;52.268;20.968;2023-04-25T00:25:59;13.60;99.90
17200;DHT22;8716;52.268;20.968;2023-04-25T00:28:27;13.50;99.90
17200;DHT22;8716;52.268;20.968;2023-04-25T00:30:55;13.50;99.90
17200;DHT22;8716;52.268;20.968;2023-04-25T00:33:26;13.50;99.90
17200;DHT22;8716;52.268;20.968;2023-04-25T00:35:55;13.50;99.90
17200;DHT22;8716;52.268;20.968;2023-04-25T00:38:23;13.50;99.90
17200;DHT22;8716;52.268;20.968;2023-04-25T00:40:51;13.40;99.90
17200;DHT22;8716;52.268;20.968;2023-04-25T00:43:24;13.40;99.90
17200;DHT22;8716;52.268;20.968;2023-04-25T00:45:53;13.40;99.90
17200;DHT22;8716;52.268;20.968;2023-04-25T00:48:24;13.30;99.90
17200;DHT22;8716;52.268;20.968;2023-04-25T00:50:53;13.30;99.90
17200;DHT22;8716;52.268;20.968;2023-04-25T00:53:23;13.30;99.90
17200;DHT22;8716;52.268;20.968;2023-04-25T00:55:52;13.30;99.90
17200;DHT22;8716;52.268;20.968;2023-04-25T00:58:23;13.30;99.90
17200;DHT22;8716;52.268;20.968;2023-04-25T01:00:52;13.30;99.90
17200;DHT22;8716;52.268;20.968;2023-04-25T01:03:20;13.20;99.90
17200;DHT22;8716;52.268;20.968;2023-04-25T01:05:50;13.20;99.90
17200;DHT22;8716;52.268;20.968;2023-04-25T01:08:18;13.20;99.90
17200;DHT22;8716;52.268;20.968;2023-04-25T01:10:49;13.20;99.90
17200;DHT22;8716;52.268;20.968;2023-04-25T01:13:18;13.10;99.90
17200;DHT22;8716;52.268;20.968;2023-04-25T01:15:48;13.20;99.90
17200;DHT22;8716;52.268;20.968;2023-04-25T01:18:19;13.10;99.90
17200;DHT22;8716;52.268;20.968;2023-04-25T01:20:50;13.10;99.90
17200;DHT22;8716;52.268;20.968;2023-04-25T01:23:21;13.10;99.90
17200;DHT22;8716;52.268;20.968;2023-04-25T01:25:51;13.10;99.90
17200;DHT22;8716;52.268;20.968;2023-04-25T01:28:19;13.10;99.90
17200;DHT22;8716;52.268;20.968;2023-04-25T01:30:49;13.00;99.90
17200;DHT22;8716;52.268;20.968;2023-04-25T01:33:19;13.10;99.90
17200;DHT22;8716;52.268;20.968;2023-04-25T01:35:49;13.10;99.90
17200;DHT22;8716;52.268;20.968;2023-04-25T01:38:20;13.10;99.90
17200;DHT22;8716;52.268;20.968;2023-04-25T01:40:51;13.00;99.90
17200;DHT22;8716;52.268;20.968;2023-04-25T01:43:19;13.00;99.90
17200;DHT22;8716;52.268;20.968;2023-04-25T01:45:53;13.00;99.90
17200;DHT22;8716;52.268;20.968;2023-04-25T01:48:22;12.90;99.90
17200;DHT22;8716;52.268;20.968;2023-04-25T01:50:50;12.90;99.90
17200;DHT22;8716;52.268;20.968;2023-04-25T01:53:23;12.90;99.90
17200;DHT22;8716;52.268;20.968;2023-04-25T01:55:52;12.90;99.90
17200;DHT22;8716;52.268;20.968;2023-04-25T01:58:24;12.90;99.90
17200;DHT22;8716;52.268;20.968;2023-04-25T02:01:13;12.90;99.90
17200;DHT22;8716;52.268;20.968;2023-04-25T02:03:54;12.80;99.90
17200;DHT22;8716;52.268;20.968;2023-04-25T02:06:28;12.80;99.90
17200;DHT22;8716;52.268;20.968;2023-04-25T02:09:01;12.80;99.90
17200;DHT22;8716;52.268;20.968;2023-04-25T02:11:29;12.80;99.90
17200;DHT22;8716;52.268;20.968;2023-04-25T02:14:47;12.80;99.90
17200;DHT22;8716;52.268;20.968;2023-04-25T02:17:47;12.70;99.90
17200;DHT22;8716;52.268;20.968;2023-04-25T02:20:16;12.70;99.90
17200;DHT22;8716;52.268;20.968;2023-04-25T02:22:58;12.70;99.90
17200;DHT22;8716;52.268;20.968;2023-04-25T02:25:29;12.70;99.90
17200;DHT22;8716;52.268;20.968;2023-04-25T02:27:57;12.60;99.90
17200;DHT22;8716;52.268;20.968;2023-04-25T02:30:25;12.70;99.90
17200;DHT22;8716;52.268;20.968;2023-04-25T02:32:53;12.70;99.90
17200;DHT22;8716;52.268;20.968;2023-04-25T02:35:24;12.70;99.90
17200;DHT22;8716;52.268;20.968;2023-04-25T02:38:02;12.60;99.90
17200;DHT22;8716;52.268;20.968;2023-04-25T02:40:34;12.60;99.90
17200;DHT22;8716;52.268;20.968;2023-04-25T02:43:05;12.60;99.90
17200;DHT22;8716;52.268;20.968;2023-04-25T02:45:34;12.60;99.90
17200;DHT22;8716;52.268;20.968;2023-04-25T02:48:04;12.60;99.90
17200;DHT22;8716;52.268;20.968;2023-04-25T02:50:32;12.60;99.90
17200;DHT22;8716;52.268;20.968;2023-04-25T02:53:03;12.60;99.90
17200;DHT22;8716;52.268;20.968;2023-04-25T02:55:38;12.50;99.90
17200;DHT22;8716;52.268;20.968;2023-04-25T02:58:12;12.50;99.90
17200;DHT22;8716;52.268;20.968;2023-04-25T03:00:47;12.50;99.90
17200;DHT22;8716;52.268;20.968;2023-04-25T03:03:16;12.50;99.90
17200;DHT22;8716;52.268;20.968;2023-04-25T03:05:53;12.50;99.90
17200;DHT22;8716;52.268;20.968;2023-04-25T03:08:29;12.40;99.90
17200;DHT22;8716;52.268;20.968;2023-04-25T03:11:01;12.40;99.90
17200;DHT22;8716;52.268;20.968;2023-04-25T03:13:33;12.40;99.90
17200;DHT22;8716;52.268;20.968;2023-04-25T03:16:01;12.50;99.90
17200;DHT22;8716;52.268;20.968;2023-04-25T03:18:32;12.40;99.90
17200;DHT22;8716;52.268;20.968;2023-04-25T03:21:00;12.40;99.90
17200;DHT22;8716;52.268;20.968;2023-04-25T03:23:30;12.40;99.90
17200;DHT22;8716;52.268;20.968;2023-04-25T03:26:02;12.40;99.90
17200;DHT22;8716;52.268;20.968;2023-04-25T03:28:30;12.40;99.90
17200;DHT22;8716;52.268;20.968;2023-04-25T03:31:01;12.40;99.90
17200;DHT22;8716;52.268;20.968;2023-04-25T03:33:36;12.40;99.90
17200;DHT22;8716;52.268;20.968;2023-04-25T03:36:05;12.40;99.90
17200;DHT22;8716;52.268;20.968;2023-04-25T03:38:34;12.40;99.90
17200;DHT22;8716;52.268;20.968;2023-04-25T03:41:07;12.40;99.90
17200;DHT22;8716;52.268;20.968;2023-04-25T03:43:47;12.40;99.90
17200;DHT22;8716;52.268;20.968;2023-04-25T03:46:16;12.50;99.90
17200;DHT22;8716;52.268;20.968;2023-04-25T03:48:46;12.50;99.90
17200;DHT22;8716;52.268;20.968;2023-04-25T03:51:21;12.50;99.90
17200;DHT22;8716;52.268;20.968;2023-04-25T03:53:49;12.60;99.90
17200;DHT22;8716;52.268;20.968;2023-04-25T03:56:42;12.60;99.90
17200;DHT22;8716;52.268;20.968;2023-04-25T03:59:17;12.60;99.90
17200;DHT22;8716;52.268;20.968;2023-04-25T04:01:46;12.60;99.90
17200;DHT22;8716;52.268;20.968;2023-04-25T04:04:14;12.60;99.90
17200;DHT22;8716;52.268;20.968;2023-04-25T04:06:43;12.60;99.90
17200;DHT22;8716;52.268;20.968;2023-04-25T04:09:16;12.60;99.90
17200;DHT22;8716;52.268;20.968;2023-04-25T04:11:47;12.70;99.90
17200;DHT22;8716;52.268;20.968;2023-04-25T04:14:15;12.70;99.90
17200;DHT22;8716;52.268;20.968;2023-04-25T04:16:46;12.80;99.90
17200;DHT22;8716;52.268;20.968;2023-04-25T04:19:14;12.80;99.90
17200;DHT22;8716;52.268;20.968;2023-04-25T04:21:52;12.80;99.90
17200;DHT22;8716;52.268;20.968;2023-04-25T04:24:20;12.90;99.90
17200;DHT22;8716;52.268;20.968;2023-04-25T04:26:55;12.90;99.90
17200;DHT22;8716;52.268;20.968;2023-04-25T04:29:36;13.00;99.90
17200;DHT22;8716;52.268;20.968;2023-04-25T04:32:14;13.00;99.90
17200;DHT22;8716;52.268;20.968;2023-04-25T04:34:43;13.00;99.90
17200;DHT22;8716;52.268;20.968;2023-04-25T04:37:14;13.10;99.90
17200;DHT22;8716;52.268;20.968;2023-04-25T04:39:42;13.10;99.90
17200;DHT22;8716;52.268;20.968;2023-04-25T04:42:45;13.10;99.90
17200;DHT22;8716;52.268;20.968;2023-04-25T04:45:21;13.20;99.90
17200;DHT22;8716;52.268;20.968;2023-04-25T04:48:24;13.20;99.90
17200;DHT22;8716;52.268;20.968;2023-04-25T04:51:01;13.30;99.90
17200;DHT22;8716;52.268;20.968;2023-04-25T04:53:55;13.30;99.90
17200;DHT22;8716;52.268;20.968;2023-04-25T04:56:51;13.30;99.90
17200;DHT22;8716;52.268;20.968;2023-04-25T04:59:43;13.30;99.90
17200;DHT22;8716;52.268;20.968;2023-04-25T05:02:40;13.30;99.90
17200;DHT22;8716;52.268;20.968;2023-04-25T05:05:30;13.30;99.90
17200;DHT22;8716;52.268;20.968;2023-04-25T05:08:12;13.30;99.90
17200;DHT22;8716;52.268;20.968;2023-04-25T05:10:59;13.30;99.90
17200;DHT22;8716;52.268;20.968;2023-04-25T05:14:02;13.30;99.90
17200;DHT22;8716;52.268;20.968;2023-04-25T05:16:38;13.20;99.90
17200;DHT22;8716;52.268;20.968;2023-04-25T05:19:35;13.20;99.90
17200;DHT22;8716;52.268;20.968;2023-04-25T05:22:39;13.20;99.90
17200;DHT22;8716;52.268;20.968;2023-04-25T05:25:37;13.10;99.90
17200;DHT22;8716;52.268;20.968;2023-04-25T05:28:13;13.10;99.90
17200;DHT22;8716;52.268;20.968;2023-04-25T05:30:51;13.10;99.90
17200;DHT22;8716;52.268;20.968;2023-04-25T05:33:32;13.00;99.90
17200;DHT22;8716;52.268;20.968;2023-04-25T05:36:01;13.00;99.90
17200;DHT22;8716;52.268;20.968;2023-04-25T05:38:29;13.00;99.90
17200;DHT22;8716;52.268;20.968;2023-04-25T05:41:19;13.00;99.90
17200;DHT22;8716;52.268;20.968;2023-04-25T05:43:57;13.00;99.90
17200;DHT22;8716;52.268;20.968;2023-04-25T05:46:35;13.00;99.90
17200;DHT22;8716;52.268;20.968;2023-04-25T05:49:10;13.00;99.90
17200;DHT22;8716;52.268;20.968;2023-04-25T05:51:55;13.00;99.90
17200;DHT22;8716;52.268;20.968;2023-04-25T05:54:49;12.90;99.90
17200;DHT22;8716;52.268;20.968;2023-04-25T05:57:22;12.90;99.90
17200;DHT22;8716;52.268;20.968;2023-04-25T05:59:50;12.90;99.90
17200;DHT22;8716;52.268;20.968;2023-04-25T06:02:19;12.90;99.90
17200;DHT22;8716;52.268;20.968;2023-04-25T06:04:51;13.00;99.90
17200;DHT22;8716;52.268;20.968;2023-04-25T06:07:21;13.00;99.90
17200;DHT22;8716;52.268;20.968;2023-04-25T06:09:50;13.00;99.90
17200;DHT22;8716;52.268;20.968;2023-04-25T06:12:18;13.00;99.90
17200;DHT22;8716;52.268;20.968;2023-04-25T06:14:47;13.00;99.90
17200;DHT22;8716;52.268;20.968;2023-04-25T06:17:16;13.00;99.90
17200;DHT22;8716;52.268;20.968;2023-04-25T06:19:44;13.10;99.90
17200;DHT22;8716;52.268;20.968;2023-04-25T06:22:15;13.00;99.90
17200;DHT22;8716;52.268;20.968;2023-04-25T06:24:43;13.00;99.90
17200;DHT22;8716;52.268;20.968;2023-04-25T06:27:12;13.10;99.90
17200;DHT22;8716;52.268;20.968;2023-04-25T06:29:43;13.10;99.90
17200;DHT22;8716;52.268;20.968;2023-04-25T06:32:11;13.00;99.90
17200;DHT22;8716;52.268;20.968;2023-04-25T06:34:42;13.00;99.90
17200;DHT22;8716;52.268;20.968;2023-04-25T06:37:10;13.00;99.90
17200;DHT22;8716;52.268;20.968;2023-04-25T06:39:40;13.00;99.90
17200;DHT22;8716;52.268;20.968;2023-04-25T06:42:09;12.90;99.90
17200;DHT22;8716;52.268;20.968;2023-04-25T06:44:49;12.90;99.90
17200;DHT22;8716;52.268;20.968;2023-04-25T06:47:18;12.80;99.90
17200;DHT22;8716;52.268;20.968;2023-04-25T06:49:48;12.80;99.90
17200;DHT22;8716;52.268;20.968;2023-04-25T06:52:16;12.80;99.90
17200;DHT22;8716;52.268;20.968;2023-04-25T06:54:47;12.70;99.90
17200;DHT22;8716;52.268;20.968;2023-04-25T06:57:23;12.70;99.90
17200;DHT22;8716;52.268;20.968;2023-04-25T06:59:52;12.70;99.90
17200;DHT22;8716;52.268;20.968;2023-04-25T07:02:21;12.70;99.90
17200;DHT22;8716;52.268;20.968;2023-04-25T07:04:51;12.70;99.90
17200;DHT22;8716;52.268;20.968;2023-04-25T07:07:20;12.80;99.90
17200;DHT22;8716;52.268;20.968;2023-04-25T07:09:55;12.80;99.90
17200;DHT22;8716;52.268;20.968;2023-04-25T07:12:24;12.90;99.90
17200;DHT22;8716;52.268;20.968;2023-04-25T07:14:52;13.00;99.90
17200;DHT22;8716;52.268;20.968;2023-04-25T07:17:20;13.20;99.90
17200;DHT22;8716;52.268;20.968;2023-04-25T07:19:49;13.40;99.90
17200;DHT22;8716;52.268;20.968;2023-04-25T07:22:20;13.60;99.90
17200;DHT22;8716;52.268;20.968;2023-04-25T07:24:48;13.90;99.90
17200;DHT22;8716;52.268;20.968;2023-04-25T07:27:21;14.20;99.90
17200;DHT22;8716;52.268;20.968;2023-04-25T07:30:03;14.50;99.90
17200;DHT22;8716;52.268;20.968;2023-04-25T07:32:31;14.80;99.90
17200;DHT22;8716;52.268;20.968;2023-04-25T07:35:00;14.80;99.90
17200;DHT22;8716;52.268;20.968;2023-04-25T07:37:29;14.90;99.90
17200;DHT22;8716;52.268;20.968;2023-04-25T07:40:02;14.90;99.90
17200;DHT22;8716;52.268;20.968;2023-04-25T07:42:33;15.10;99.90
17200;DHT22;8716;52.268;20.968;2023-04-25T07:45:03;15.30;99.90
17200;DHT22;8716;52.268;20.968;2023-04-25T07:47:32;15.40;99.90
17200;DHT22;8716;52.268;20.968;2023-04-25T07:50:00;15.60;99.90
17200;DHT22;8716;52.268;20.968;2023-04-25T07:52:30;15.80;99.90
17200;DHT22;8716;52.268;20.968;2023-04-25T07:55:16;16.10;99.90
17200;DHT22;8716;52.268;20.968;2023-04-25T07:57:57;16.30;99.90
17200;DHT22;8716;52.268;20.968;2023-04-25T08:00:28;16.20;99.90
17200;DHT22;8716;52.268;20.968;2023-04-25T08:03:16;16.00;99.90
17200;DHT22;8716;52.268;20.968;2023-04-25T08:05:45;15.80;99.90
17200;DHT22;8716;52.268;20.968;2023-04-25T08:08:14;15.60;99.90
17200;DHT22;8716;52.268;20.968;2023-04-25T08:10:42;15.40;99.90
17200;DHT22;8716;52.268;20.968;2023-04-25T08:13:13;15.30;99.90
17200;DHT22;8716;52.268;20.968;2023-04-25T08:15:41;15.20;99.90
17200;DHT22;8716;52.268;20.968;2023-04-25T08:18:09;15.20;99.90
17200;DHT22;8716;52.268;20.968;2023-04-25T08:20:42;15.10;99.90
17200;DHT22;8716;52.268;20.968;2023-04-25T08:23:12;15.20;99.90
17200;DHT22;8716;52.268;20.968;2023-04-25T08:26:01;15.10;99.90
17200;DHT22;8716;52.268;20.968;2023-04-25T08:28:33;15.20;99.90
17200;DHT22;8716;52.268;20.968;2023-04-25T08:31:01;15.20;99.90
17200;DHT22;8716;52.268;20.968;2023-04-25T08:33:37;15.20;99.90
17200;DHT22;8716;52.268;20.968;2023-04-25T08:36:19;15.20;99.90
17200;DHT22;8716;52.268;20.968;2023-04-25T08:39:06;15.00;99.90
17200;DHT22;8716;52.268;20.968;2023-04-25T08:41:44;15.00;99.90
17200;DHT22;8716;52.268;20.968;2023-04-25T08:44:14;14.80;99.90
17200;DHT22;8716;52.268;20.968;2023-04-25T08:46:46;14.70;99.90
17200;DHT22;8716;52.268;20.968;2023-04-25T08:49:31;14.50;99.90
17200;DHT22;8716;52.268;20.968;2023-04-25T08:52:04;14.30;99.90
17200;DHT22;8716;52.268;20.968;2023-04-25T08:54:35;14.10;99.90
17200;DHT22;8716;52.268;20.968;2023-04-25T08:57:07;14.20;99.90
17200;DHT22;8716;52.268;20.968;2023-04-25T08:59:37;14.20;99.90
17200;DHT22;8716;52.268;20.968;2023-04-25T09:02:07;14.20;99.90
17200;DHT22;8716;52.268;20.968;2023-04-25T09:04:38;14.20;99.90
17200;DHT22;8716;52.268;20.968;2023-04-25T09:07:10;14.20;99.90
17200;DHT22;8716;52.268;20.968;2023-04-25T09:09:38;14.00;99.90
17200;DHT22;8716;52.268;20.968;2023-04-25T09:12:07;14.00;99.90
17200;DHT22;8716;52.268;20.968;2023-04-25T09:14:37;13.90;99.90
17200;DHT22;8716;52.268;20.968;2023-04-25T09:17:18;13.80;99.90
17200;DHT22;8716;52.268;20.968;2023-04-25T09:19:50;13.80;99.90
17200;DHT22;8716;52.268;20.968;2023-04-25T09:22:26;13.70;99.90
17200;DHT22;8716;52.268;20.968;2023-04-25T09:24:54;13.60;99.90
17200;DHT22;8716;52.268;20.968;2023-04-25T09:27:26;13.50;99.90
17200;DHT22;8716;52.268;20.968;2023-04-25T09:30:06;13.40;99.90
17200;DHT22;8716;52.268;20.968;2023-04-25T09:33:05;13.30;99.90
17200;DHT22;8716;52.268;20.968;2023-04-25T09:35:36;13.20;99.90
17200;DHT22;8716;52.268;20.968;2023-04-25T09:38:10;13.20;99.90
17200;DHT22;8716;52.268;20.968;2023-04-25T09:40:58;13.20;99.90
17200;DHT22;8716;52.268;20.968;2023-04-25T09:43:49;13.30;99.90
17200;DHT22;8716;52.268;20.968;2023-04-25T09:46:19;13.20;99.90
17200;DHT22;8716;52.268;20.968;2023-04-25T09:48:55;13.20;99.90
17200;DHT22;8716;52.268;20.968;2023-04-25T09:51:33;13.10;99.90
17200;DHT22;8716;52.268;20.968;2023-04-25T09:54:01;13.10;99.90
17200;DHT22;8716;52.268;20.968;2023-04-25T09:56:37;13.00;99.90
17200;DHT22;8716;52.268;20.968;2023-04-25T09:59:07;13.00;99.90
17200;DHT22;8716;52.268;20.968;2023-04-25T10:01:40;13.00;99.90
17200;DHT22;8716;52.268;20.968;2023-04-25T10:04:18;13.00;99.90
17200;DHT22;8716;52.268;20.968;2023-04-25T10:06:56;13.00;99.90
17200;DHT22;8716;52.268;20.968;2023-04-25T10:09:26;13.00;99.90
17200;DHT22;8716;52.268;20.968;2023-04-25T10:12:03;13.00;99.90
17200;DHT22;8716;52.268;20.968;2023-04-25T10:14:31;13.00;99.90
17200;DHT22;8716;52.268;20.968;2023-04-25T10:17:05;13.00;99.90
17200;DHT22;8716;52.268;20.968;2023-04-25T10:19:33;13.00;99.90
17200;DHT22;8716;52.268;20.968;2023-04-25T10:22:08;13.00;99.90
17200;DHT22;8716;52.268;20.968;2023-04-25T10:24:47;13.00;99.90
17200;DHT22;8716;52.268;20.968;2023-04-25T10:27:21;12.90;99.90
17200;DHT22;8716;52.268;20.968;2023-04-25T10:30:00;12.90;99.90
17200;DHT22;8716;52.268;20.968;2023-04-25T10:32:33;12.90;99.90
17200;DHT22;8716;52.268;20.968;2023-04-25T10:35:14;12.80;99.90
17200;DHT22;8716;52.268;20.968;2023-04-25T10:37:57;12.70;99.90
17200;DHT22;8716;52.268;20.968;2023-04-25T10:40:31;12.70;99.90
17200;DHT22;8716;52.268;20.968;2023-04-25T10:43:34;12.80;99.90
17200;DHT22;8716;52.268;20.968;2023-04-25T10:46:15;12.70;99.90
17200;DHT22;8716;52.268;20.968;2023-04-25T10:48:50;12.70;99.90
17200;DHT22;8716;52.268;20.968;2023-04-25T10:51:23;12.70;99.90
17200;DHT22;8716;52.268;20.968;2023-04-25T10:54:00;12.70;99.90
17200;DHT22;8716;52.268;20.968;2023-04-25T10:56:36;12.70;99.90
17200;DHT22;8716;52.268;20.968;2023-04-25T10:59:09;12.70;99.90
17200;DHT22;8716;52.268;20.968;2023-04-25T11:01:41;12.90;99.90
17200;DHT22;8716;52.268;20.968;2023-04-25T11:04:24;12.90;99.90
17200;DHT22;8716;52.268;20.968;2023-04-25T11:07:05;13.00;99.90
17200;DHT22;8716;52.268;20.968;2023-04-25T11:09:38;13.00;99.90
17200;DHT22;8716;52.268;20.968;2023-04-25T11:12:08;13.10;99.90
17200;DHT22;8716;52.268;20.968;2023-04-25T11:14:41;13.20;99.90
17200;DHT22;8716;52.268;20.968;2023-04-25T11:17:09;13.20;99.90
17200;DHT22;8716;52.268;20.968;2023-04-25T11:19:40;13.30;99.90
17200;DHT22;8716;52.268;20.968;2023-04-25T11:22:10;13.30;99.90
17200;DHT22;8716;52.268;20.968;2023-04-25T11:24:38;13.40;99.90
17200;DHT22;8716;52.268;20.968;2023-04-25T11:27:10;13.40;99.90
17200;DHT22;8716;52.268;20.968;2023-04-25T11:29:38;13.40;99.90
17200;DHT22;8716;52.268;20.968;2023-04-25T11:32:06;13.50;99.90
17200;DHT22;8716;52.268;20.968;2023-04-25T11:34:35;13.60;99.90
17200;DHT22;8716;52.268;20.968;2023-04-25T11:37:05;13.60;99.90
17200;DHT22;8716;52.268;20.968;2023-04-25T11:39:33;13.60;99.90
17200;DHT22;8716;52.268;20.968;2023-04-25T11:42:04;13.70;99.90
17200;DHT22;8716;52.268;20.968;2023-04-25T11:44:39;13.70;99.90
17200;DHT22;8716;52.268;20.968;2023-04-25T11:47:08;13.70;99.90
17200;DHT22;8716;52.268;20.968;2023-04-25T11:49:36;13.70;99.90
17200;DHT22;8716;52.268;20.968;2023-04-25T11:52:07;13.80;99.90
17200;DHT22;8716;52.268;20.968;2023-04-25T11:54:36;13.80;99.90
17200;DHT22;8716;52.268;20.968;2023-04-25T11:57:05;13.80;99.90
17200;DHT22;8716;52.268;20.968;2023-04-25T11:59:33;13.90;99.90
17200;DHT22;8716;52.268;20.968;2023-04-25T12:02:01;13.90;99.90
17200;DHT22;8716;52.268;20.968;2023-04-25T12:04:30;13.90;99.90
17200;DHT22;8716;52.268;20.968;2023-04-25T12:07:00;13.90;99.90
17200;DHT22;8716;52.268;20.968;2023-04-25T12:09:32;13.80;99.90
17200;DHT22;8716;52.268;20.968;2023-04-25T12:12:01;13.70;99.90
17200;DHT22;8716;52.268;20.968;2023-04-25T12:14:32;13.80;99.90
17200;DHT22;8716;52.268;20.968;2023-04-25T12:17:02;13.80;99.90
17200;DHT22;8716;52.268;20.968;2023-04-25T12:19:32;13.80;99.90
17200;DHT22;8716;52.268;20.968;2023-04-25T12:22:02;13.80;99.90
17200;DHT22;8716;52.268;20.968;2023-04-25T12:24:34;13.70;99.90
17200;DHT22;8716;52.268;20.968;2023-04-25T12:27:06;13.70;99.90
17200;DHT22;8716;52.268;20.968;2023-04-25T12:29:35;13.70;99.90
17200;DHT22;8716;52.268;20.968;2023-04-25T12:32:15;13.70;99.90
17200;DHT22;8716;52.268;20.968;2023-04-25T12:34:44;13.70;99.90
17200;DHT22;8716;52.268;20.968;2023-04-25T12:37:13;13.70;99.90
17200;DHT22;8716;52.268;20.968;2023-04-25T12:39:43;13.70;99.90
17200;DHT22;8716;52.268;20.968;2023-04-25T12:42:11;13.70;99.90
17200;DHT22;8716;52.268;20.968;2023-04-25T12:44:40;13.60;99.90
17200;DHT22;8716;52.268;20.968;2023-04-25T12:47:08;13.70;99.90
17200;DHT22;8716;52.268;20.968;2023-04-25T12:49:39;13.70;99.90
17200;DHT22;8716;52.268;20.968;2023-04-25T12:52:08;13.60;99.90
17200;DHT22;8716;52.268;20.968;2023-04-25T12:54:36;13.60;99.90
17200;DHT22;8716;52.268;20.968;2023-04-25T12:57:06;13.60;99.90
17200;DHT22;8716;52.268;20.968;2023-04-25T12:59:35;13.70;99.90
17200;DHT22;8716;52.268;20.968;2023-04-25T13:02:03;13.60;99.90
17200;DHT22;8716;52.268;20.968;2023-04-25T13:04:31;13.70;99.90
17200;DHT22;8716;52.268;20.968;2023-04-25T13:07:00;13.60;99.90
17200;DHT22;8716;52.268;20.968;2023-04-25T13:09:28;13.70;99.90
17200;DHT22;8716;52.268;20.968;2023-04-25T13:11:56;13.60;99.90
17200;DHT22;8716;52.268;20.968;2023-04-25T13:14:26;13.60;99.90
17200;DHT22;8716;52.268;20.968;2023-04-25T13:16:54;13.60;99.90
17200;DHT22;8716;52.268;20.968;2023-04-25T13:19:23;13.50;99.90
17200;DHT22;8716;52.268;20.968;2023-04-25T13:21:52;13.40;99.90
17200;DHT22;8716;52.268;20.968;2023-04-25T13:24:20;13.40;99.90
17200;DHT22;8716;52.268;20.968;2023-04-25T13:26:48;13.50;99.90
17200;DHT22;8716;52.268;20.968;2023-04-25T13:29:17;13.50;99.90
17200;DHT22;8716;52.268;20.968;2023-04-25T13:31:46;13.50;99.90
17200;DHT22;8716;52.268;20.968;2023-04-25T13:34:14;13.60;99.90
17200;DHT22;8716;52.268;20.968;2023-04-25T13:36:43;13.60;99.90
17200;DHT22;8716;52.268;20.968;2023-04-25T13:39:12;13.60;99.90
17200;DHT22;8716;52.268;20.968;2023-04-25T13:41:41;13.70;99.90
17200;DHT22;8716;52.268;20.968;2023-04-25T13:44:09;13.70;99.90
17200;DHT22;8716;52.268;20.968;2023-04-25T13:46:37;13.80;99.90
17200;DHT22;8716;52.268;20.968;2023-04-25T13:49:14;13.70;99.90
17200;DHT22;8716;52.268;20.968;2023-04-25T13:51:43;13.80;99.90
17200;DHT22;8716;52.268;20.968;2023-04-25T13:54:11;13.70;99.90
17200;DHT22;8716;52.268;20.968;2023-04-25T13:56:40;13.80;99.90
17200;DHT22;8716;52.268;20.968;2023-04-25T13:59:09;13.80;99.90
17200;DHT22;8716;52.268;20.968;2023-04-25T14:01:38;13.80;99.90
17200;DHT22;8716;52.268;20.968;2023-04-25T14:04:06;13.80;99.90
17200;DHT22;8716;52.268;20.968;2023-04-25T14:06:36;13.80;99.90
17200;DHT22;8716;52.268;20.968;2023-04-25T14:09:04;13.90;99.90
17200;DHT22;8716;52.268;20.968;2023-04-25T14:11:34;13.80;99.90
17200;DHT22;8716;52.268;20.968;2023-04-25T14:14:02;13.70;99.90
17200;DHT22;8716;52.268;20.968;2023-04-25T14:16:31;13.80;99.90
17200;DHT22;8716;52.268;20.968;2023-04-25T14:18:59;13.70;99.90
17200;DHT22;8716;52.268;20.968;2023-04-25T14:21:30;13.70;99.90
17200;DHT22;8716;52.268;20.968;2023-04-25T14:24:01;13.80;99.90
17200;DHT22;8716;52.268;20.968;2023-04-25T14:26:29;13.70;99.90
17200;DHT22;8716;52.268;20.968;2023-04-25T14:28:57;13.70;99.90
17200;DHT22;8716;52.268;20.968;2023-04-25T14:31:25;13.60;99.90
17200;DHT22;8716;52.268;20.968;2023-04-25T14:33:54;13.60;99.90
17200;DHT22;8716;52.268;20.968;2023-04-25T14:36:26;13.50;99.90
17200;DHT22;8716;52.268;20.968;2023-04-25T14:38:55;13.50;99.90
17200;DHT22;8716;52.268;20.968;2023-04-25T14:41:25;13.50;99.90
17200;DHT22;8716;52.268;20.968;2023-04-25T14:43:53;13.30;99.90
17200;DHT22;8716;52.268;20.968;2023-04-25T14:46:23;13.30;99.90
17200;DHT22;8716;52.268;20.968;2023-04-25T14:48:52;13.20;99.90
17200;DHT22;8716;52.268;20.968;2023-04-25T14:51:22;13.20;99.90
17200;DHT22;8716;52.268;20.968;2023-04-25T14:53:51;13.10;99.90
17200;DHT22;8716;52.268;20.968;2023-04-25T14:56:19;13.00;99.90
17200;DHT22;8716;52.268;20.968;2023-04-25T14:58:51;12.90;99.90
17200;DHT22;8716;52.268;20.968;2023-04-25T15:01:19;12.90;99.90
17200;DHT22;8716;52.268;20.968;2023-04-25T15:03:48;12.90;99.90
17200;DHT22;8716;52.268;20.968;2023-04-25T15:06:18;12.90;99.90
17200;DHT22;8716;52.268;20.968;2023-04-25T15:08:46;12.90;99.90
17200;DHT22;8716;52.268;20.968;2023-04-25T15:11:18;12.90;99.90
17200;DHT22;8716;52.268;20.968;2023-04-25T15:13:47;12.90;99.90
17200;DHT22;8716;52.268;20.968;2023-04-25T15:16:17;12.90;99.90
17200;DHT22;8716;52.268;20.968;2023-04-25T15:18:45;12.90;99.90
17200;DHT22;8716;52.268;20.968;2023-04-25T15:21:13;12.80;99.90
17200;DHT22;8716;52.268;20.968;2023-04-25T15:23:41;12.80;99.90
17200;DHT22;8716;52.268;20.968;2023-04-25T15:26:10;12.80;99.90
17200;DHT22;8716;52.268;20.968;2023-04-25T15:28:38;12.80;99.90
17200;DHT22;8716;52.268;20.968;2023-04-25T15:31:09;12.80;99.90
17200;DHT22;8716;52.268;20.968;2023-04-25T15:33:39;12.70;99.90
17200;DHT22;8716;52.268;20.968;2023-04-25T15:36:07;12.70;99.90
17200;DHT22;8716;52.268;20.968;2023-04-25T15:38:40;12.70;99.90
17200;DHT22;8716;52.268;20.968;2023-04-25T15:41:10;12.60;99.90
17200;DHT22;8716;52.268;20.968;2023-04-25T15:43:39;12.60;99.90
17200;DHT22;8716;52.268;20.968;2023-04-25T15:46:08;12.60;99.90
17200;DHT22;8716;52.268;20.968;2023-04-25T15:48:36;12.60;99.90
17200;DHT22;8716;52.268;20.968;2023-04-25T15:51:05;12.60;99.90
17200;DHT22;8716;52.268;20.968;2023-04-25T15:53:34;12.60;99.90
17200;DHT22;8716;52.268;20.968;2023-04-25T15:56:02;12.60;99.90
17200;DHT22;8716;52.268;20.968;2023-04-25T15:58:31;12.60;99.90
17200;DHT22;8716;52.268;20.968;2023-04-25T16:00:59;12.50;99.90
17200;DHT22;8716;52.268;20.968;2023-04-25T16:03:28;12.50;99.90